Time;durP1;ratioP1;P1;durP2;ratioP2;P2;SDS_P1;SDS_P2;PMS_P1;PMS_P2;Temp;Humidity;BMP_temperature;BMP_pressure;BME280_temperature;BME280_humidity;BME280_pressure;Samples;Min_cycle;Max_cycle;Signal;HPM_P1;HPM_P2
2023/12/19 00:01:47;;;;;;;203.32;88.60;;;7.20;99.90;;;;;;5014914;28;20503;-81
2023/12/19 00:04:14;;;;;;;166.75;84.95;;;7.20;99.90;;;;;;5024093;28;20098;-82
2023/12/19 00:06:39;;;;;;;197.07;87.53;;;7.20;99.90;;;;;;5014453;28;20037;-81
2023/12/19 00:09:05;;;;;;;181.15;82.93;;;7.20;99.90;;;;;;4999551;28;20129;-82
2023/12/19 00:11:30;;;;;;;185.38;83.75;;;7.20;99.90;;;;;;4998287;28;20069;-82
2023/12/19 00:13:56;;;;;;;148.18;76.20;;;7.20;99.90;;;;;;4998210;28;20038;-82
2023/12/19 00:16:22;;;;;;;141.80;74.05;;;7.20;99.90;;;;;;4997751;28;20042;-81
2023/12/19 00:18:47;;;;;;;183.77;81.10;;;7.30;99.90;;;;;;5003655;28;20041;-82
2023/12/19 00:21:13;;;;;;;158.95;75.53;;;7.20;99.90;;;;;;5024679;28;20033;-81
2023/12/19 00:23:39;;;;;;;143.30;74.00;;;7.20;99.90;;;;;;4997643;28;20565;-81
2023/12/19 00:26:05;;;;;;;133.05;69.10;;;7.20;99.90;;;;;;4997979;28;20037;-81
2023/12/19 00:28:31;;;;;;;140.30;72.93;;;7.20;99.90;;;;;;4997925;28;20076;-82
2023/12/19 00:30:57;;;;;;;138.30;71.65;;;7.20;99.90;;;;;;4996395;28;20419;-82
2023/12/19 00:33:23;;;;;;;122.38;67.75;;;7.20;99.90;;;;;;5009365;28;20049;-82
2023/12/19 00:35:49;;;;;;;158.45;74.90;;;7.20;99.90;;;;;;5017874;28;20046;-81
2023/12/19 00:38:14;;;;;;;148.68;72.03;;;7.20;99.90;;;;;;4978225;28;20408;-82
2023/12/19 00:40:40;;;;;;;108.32;64.18;;;7.20;99.90;;;;;;4993146;28;20041;-83
2023/12/19 00:43:05;;;;;;;133.30;69.07;;;7.20;99.90;;;;;;4997682;28;20029;-82
2023/12/19 00:45:31;;;;;;;119.68;65.82;;;7.20;99.90;;;;;;5014034;28;20076;-82
2023/12/19 00:47:57;;;;;;;153.15;71.95;;;7.20;99.90;;;;;;4997021;28;20052;-81
2023/12/19 00:50:22;;;;;;;124.28;67.93;;;7.20;99.90;;;;;;5011026;28;20037;-82
2023/12/19 00:52:48;;;;;;;136.63;68.00;;;7.20;99.90;;;;;;5014110;28;20056;-80
2023/12/19 00:55:14;;;;;;;134.10;70.35;;;7.30;99.90;;;;;;5013952;28;20084;-82
2023/12/19 00:57:39;;;;;;;135.60;70.22;;;7.30;99.90;;;;;;5030510;28;20040;-82
2023/12/19 01:00:05;;;;;;;151.57;72.18;;;7.20;99.90;;;;;;4990576;28;20084;-81
2023/12/19 01:02:31;;;;;;;163.98;75.65;;;7.30;99.90;;;;;;4983330;28;20044;-81
2023/12/19 01:04:57;;;;;;;150.57;73.68;;;7.30;99.90;;;;;;5016668;28;20116;-82
2023/12/19 01:07:26;;;;;;;156.63;73.30;;;7.30;99.90;;;;;;5018132;28;20041;-82
2023/12/19 01:09:52;;;;;;;180.63;77.30;;;7.30;99.90;;;;;;5007841;28;20041;-82
2023/12/19 01:12:18;;;;;;;128.85;66.95;;;7.30;99.90;;;;;;5001343;28;20037;-82
2023/12/19 01:14:44;;;;;;;143.32;70.05;;;7.30;99.90;;;;;;5001055;28;20040;-82
2023/12/19 01:17:10;;;;;;;138.80;67.43;;;7.30;99.90;;;;;;5002504;28;20037;-83
2023/12/19 01:19:35;;;;;;;153.80;70.75;;;7.30;99.90;;;;;;5030403;28;20041;-81
2023/12/19 01:22:02;;;;;;;141.32;69.15;;;7.30;99.90;;;;;;5034015;28;20065;-82
2023/12/19 01:24:28;;;;;;;124.82;66.30;;;7.30;99.90;;;;;;5033959;28;20142;-82
2023/12/19 01:26:54;;;;;;;128.50;66.90;;;7.20;99.90;;;;;;5017576;28;20180;-82
2023/12/19 01:29:19;;;;;;;141.45;67.82;;;7.20;99.90;;;;;;5005051;28;20496;-82
2023/12/19 01:31:45;;;;;;;161.15;71.22;;;7.20;99.90;;;;;;5001155;28;20060;-82
2023/12/19 01:34:11;;;;;;;126.20;66.82;;;7.20;99.90;;;;;;5017110;28;20041;-82
2023/12/19 01:36:41;;;;;;;141.25;67.35;;;7.20;99.90;;;;;;5017428;28;20045;-82
2023/12/19 01:39:09;;;;;;;129.55;63.05;;;7.20;99.90;;;;;;5013628;28;20040;-83
2023/12/19 01:41:35;;;;;;;130.73;66.72;;;7.20;99.90;;;;;;5017597;28;20045;-82
2023/12/19 01:44:01;;;;;;;145.68;68.85;;;7.20;99.90;;;;;;5017049;28;20048;-84
2023/12/19 01:46:27;;;;;;;124.15;66.13;;;7.20;99.90;;;;;;5004133;28;20060;-82
2023/12/19 01:48:53;;;;;;;137.48;66.80;;;7.20;99.90;;;;;;5028067;28;20038;-82
2023/12/19 01:51:19;;;;;;;126.05;63.72;;;7.20;99.90;;;;;;4981076;28;20128;-82
2023/12/19 01:53:49;;;;;;;131.85;66.63;;;7.10;99.90;;;;;;4981060;28;20041;-82
2023/12/19 01:56:17;;;;;;;125.38;64.18;;;7.10;99.90;;;;;;4990813;28;20069;-82
2023/12/19 01:58:43;;;;;;;153.98;68.32;;;7.20;99.90;;;;;;4989064;28;20034;-82
2023/12/19 02:01:11;;;;;;;137.80;66.50;;;7.20;99.90;;;;;;5000830;28;20491;-82
2023/12/19 02:03:37;;;;;;;143.02;64.28;;;7.10;99.90;;;;;;4999955;28;20079;-81
2023/12/19 02:06:04;;;;;;;127.90;62.97;;;7.10;99.90;;;;;;5016996;28;20517;-82
2023/12/19 02:08:30;;;;;;;122.32;62.08;;;7.10;99.90;;;;;;5015785;28;20412;-81
2023/12/19 02:10:56;;;;;;;124.43;62.40;;;7.10;99.90;;;;;;5022991;28;20037;-83
2023/12/19 02:13:21;;;;;;;108.13;59.22;;;7.10;99.90;;;;;;5016570;28;20048;-82
2023/12/19 02:15:48;;;;;;;120.65;61.75;;;7.10;99.90;;;;;;5016591;28;20049;-81
2023/12/19 02:18:21;;;;;;;101.38;56.45;;;7.10;99.90;;;;;;5024194;23;20104;-76
2023/12/19 02:20:59;;;;;;;138.90;63.45;;;7.10;99.90;;;;;;4995748;28;20041;-76
2023/12/19 02:23:33;;;;;;;105.97;59.28;;;7.10;99.90;;;;;;4997477;28;20066;-76
2023/12/19 02:26:01;;;;;;;107.05;58.13;;;7.20;99.90;;;;;;5013897;28;20041;-75
2023/12/19 02:28:27;;;;;;;108.13;58.83;;;7.10;99.90;;;;;;4966005;28;20078;-76
2023/12/19 02:31:00;;;;;;;134.55;63.95;;;7.10;99.90;;;;;;4961683;28;20053;-76
2023/12/19 02:33:26;;;;;;;139.38;63.10;;;7.10;99.90;;;;;;4977242;28;20506;-76
2023/12/19 02:35:54;;;;;;;100.63;57.20;;;7.10;99.90;;;;;;5000931;28;20050;-76
2023/12/19 02:38:20;;;;;;;101.22;57.20;;;7.10;99.90;;;;;;4976716;28;20039;-76
2023/12/19 02:40:46;;;;;;;100.40;56.42;;;7.10;99.90;;;;;;4977250;28;20503;-76
2023/12/19 02:43:16;;;;;;;154.02;63.35;;;7.10;99.90;;;;;;4992534;28;20128;-76
2023/12/19 02:45:44;;;;;;;114.15;57.90;;;7.10;99.90;;;;;;4976581;28;20073;-76
2023/12/19 02:48:16;;;;;;;110.18;58.25;;;7.10;99.90;;;;;;4976431;28;20046;-76
2023/12/19 02:50:45;;;;;;;108.10;57.72;;;7.20;99.90;;;;;;4986049;28;20092;-76
2023/12/19 02:53:13;;;;;;;131.10;61.67;;;7.10;99.90;;;;;;4995839;28;20466;-76
2023/12/19 02:55:41;;;;;;;109.47;57.58;;;7.10;99.90;;;;;;4981145;28;20129;-78
2023/12/19 02:58:10;;;;;;;85.10;52.60;;;7.20;99.90;;;;;;4973004;28;20133;-76
2023/12/19 03:00:39;;;;;;;156.18;60.83;;;7.10;99.90;;;;;;4983751;28;20030;-77
2023/12/19 03:03:05;;;;;;;103.53;55.08;;;7.10;99.90;;;;;;4976620;28;20069;-77
2023/12/19 03:05:32;;;;;;;116.53;57.33;;;7.10;99.90;;;;;;4976447;28;20049;-77
2023/12/19 03:08:01;;;;;;;66.38;46.95;;;7.10;99.90;;;;;;4976261;28;20050;-76
2023/12/19 03:10:26;;;;;;;99.00;53.50;;;7.10;99.90;;;;;;4983058;28;20037;-76
2023/12/19 03:12:52;;;;;;;94.25;50.83;;;7.10;99.90;;;;;;4984638;28;20088;-77
2023/12/19 03:15:20;;;;;;;115.43;53.92;;;7.10;99.90;;;;;;4979035;28;20043;-76
2023/12/19 03:17:52;;;;;;;107.00;54.60;;;7.10;99.90;;;;;;4976805;28;20042;-76
2023/12/19 03:20:20;;;;;;;108.93;54.55;;;7.10;99.90;;;;;;4976872;28;20054;-76
2023/12/19 03:22:48;;;;;;;119.10;53.80;;;7.10;99.90;;;;;;4976195;28;20034;-76
2023/12/19 03:25:16;;;;;;;82.38;50.63;;;7.10;99.90;;;;;;4983532;28;20563;-77
2023/12/19 03:27:42;;;;;;;116.22;55.13;;;7.10;99.90;;;;;;4980499;28;20046;-76
2023/12/19 03:30:08;;;;;;;102.38;53.72;;;7.10;99.90;;;;;;4976601;28;20076;-76
2023/12/19 03:32:36;;;;;;;112.05;55.90;;;7.10;99.90;;;;;;4976748;28;20447;-76
2023/12/19 03:35:07;;;;;;;108.13;55.25;;;7.10;99.90;;;;;;4976606;28;20101;-77
2023/12/19 03:37:36;;;;;;;148.07;61.28;;;7.10;99.90;;;;;;4976395;28;20129;-77
2023/12/19 03:40:11;;;;;;;124.10;56.58;;;7.10;99.90;;;;;;4983551;28;20093;-76
2023/12/19 03:42:48;;;;;;;118.65;58.20;;;7.10;99.90;;;;;;4994179;28;20085;-76
2023/12/19 03:45:17;;;;;;;96.60;54.70;;;7.10;99.90;;;;;;4985874;28;20046;-77
2023/12/19 03:47:46;;;;;;;120.40;57.35;;;7.10;99.90;;;;;;4977058;28;20042;-76
2023/12/19 03:50:16;;;;;;;133.65;59.95;;;7.10;99.90;;;;;;4976505;28;20072;-76
2023/12/19 03:52:42;;;;;;;113.78;58.28;;;7.10;99.90;;;;;;4977149;28;20555;-77
2023/12/19 03:55:10;;;;;;;170.60;66.50;;;7.10;99.90;;;;;;4991841;28;20038;-76
2023/12/19 03:57:42;;;;;;;147.40;62.40;;;7.10;99.90;;;;;;4995182;28;20495;-76
2023/12/19 04:00:11;;;;;;;151.02;61.65;;;7.10;99.90;;;;;;4991438;28;20045;-76
2023/12/19 04:02:37;;;;;;;124.63;61.15;;;7.10;99.90;;;;;;4988428;28;20043;-76
2023/12/19 04:05:06;;;;;;;131.65;62.20;;;7.10;99.90;;;;;;4986812;28;20095;-76
2023/12/19 04:07:40;;;;;;;107.07;59.47;;;7.10;99.90;;;;;;4994795;28;20395;-77
2023/12/19 04:10:20;;;;;;;128.95;64.13;;;7.10;99.90;;;;;;4976172;28;20058;-77
2023/12/19 04:12:54;;;;;;;143.57;66.25;;;7.20;99.90;;;;;;4955564;28;20051;-77
2023/12/19 04:15:38;;;;;;;140.30;66.38;;;7.10;99.90;;;;;;4974725;28;20049;-77
2023/12/19 04:18:35;;;;;;;117.25;61.38;;;7.10;99.90;;;;;;4980746;28;20100;-77
2023/12/19 04:21:04;;;;;;;171.65;70.93;;;7.20;99.90;;;;;;4956060;28;20467;-76
2023/12/19 04:23:29;;;;;;;162.95;68.95;;;7.20;99.90;;;;;;4973397;28;20050;-76
2023/12/19 04:26:00;;;;;;;132.40;67.82;;;7.20;99.90;;;;;;4975273;28;20046;-76
2023/12/19 04:28:44;;;;;;;218.65;75.20;;;7.20;99.90;;;;;;4991355;28;20042;-76
2023/12/19 04:31:13;;;;;;;182.73;73.70;;;7.20;99.90;;;;;;4974282;28;20139;-76
2023/12/19 04:33:55;;;;;;;214.20;79.65;;;7.20;99.90;;;;;;4975795;28;20120;-77
2023/12/19 04:36:29;;;;;;;255.43;81.50;;;7.20;99.90;;;;;;4955328;28;20082;-77
2023/12/19 04:39:54;;;;;;;190.60;75.05;;;7.20;99.90;;;;;;4971843;28;20074;-77
2023/12/19 04:42:20;;;;;;;177.00;72.80;;;7.20;99.90;;;;;;4941488;28;20046;-76
2023/12/19 04:44:58;;;;;;;136.20;66.35;;;7.20;99.90;;;;;;4987703;28;20489;-76
2023/12/19 04:47:26;;;;;;;195.13;73.72;;;7.20;99.90;;;;;;4982023;28;20118;-76
2023/12/19 04:49:52;;;;;;;163.02;67.55;;;7.20;99.90;;;;;;4993590;28;20042;-76
2023/12/19 04:52:20;;;;;;;184.68;72.25;;;7.30;99.90;;;;;;4994398;28;20092;-76
2023/12/19 04:54:49;;;;;;;113.78;58.63;;;7.30;99.90;;;;;;4979692;28;20058;-76
2023/12/19 04:57:14;;;;;;;174.93;68.60;;;7.30;99.90;;;;;;4974814;28;20038;-76
2023/12/19 04:59:43;;;;;;;134.20;61.38;;;7.30;99.90;;;;;;4974684;28;20085;-76
2023/12/19 05:02:17;;;;;;;138.02;61.05;;;7.30;99.90;;;;;;4980958;28;20117;-75
2023/12/19 05:04:46;;;;;;;139.50;59.45;;;7.30;99.90;;;;;;4964946;28;20101;-76
2023/12/19 05:07:17;;;;;;;155.27;60.55;;;7.30;99.90;;;;;;4955498;28;20101;-76
2023/12/19 05:09:52;;;;;;;99.47;53.55;;;7.30;99.90;;;;;;4970758;28;20045;-77
2023/12/19 05:12:27;;;;;;;147.25;59.92;;;7.30;99.90;;;;;;4983695;28;20421;-76
2023/12/19 05:15:01;;;;;;;142.43;58.97;;;7.30;99.90;;;;;;4984375;28;20042;-76
2023/12/19 05:17:35;;;;;;;151.35;59.83;;;7.30;99.90;;;;;;4974291;28;20038;-76
2023/12/19 05:20:03;;;;;;;111.35;53.67;;;7.30;99.90;;;;;;4991556;28;20041;-76
2023/12/19 05:22:29;;;;;;;141.18;56.20;;;7.30;99.90;;;;;;4974295;28;20400;-77
2023/12/19 05:24:57;;;;;;;93.35;48.40;;;7.30;99.90;;;;;;4979071;28;20046;-77
2023/12/19 05:27:43;;;;;;;90.57;46.85;;;7.30;99.90;;;;;;4978312;28;20046;-77
2023/12/19 05:30:24;;;;;;;160.48;55.30;;;7.40;99.90;;;;;;4954991;28;20047;-77
2023/12/19 05:32:55;;;;;;;141.50;53.13;;;7.30;99.90;;;;;;4955619;28;20051;-77
2023/12/19 05:35:24;;;;;;;67.55;42.28;;;7.30;99.90;;;;;;4966182;28;20054;-77
2023/12/19 05:37:50;;;;;;;71.55;44.17;;;7.30;99.90;;;;;;4973254;28;20054;-77
2023/12/19 05:40:20;;;;;;;114.20;48.05;;;7.30;99.90;;;;;;4981314;28;20046;-77
2023/12/19 05:42:54;;;;;;;127.40;50.17;;;7.30;99.90;;;;;;4986887;28;20535;-77
2023/12/19 05:45:25;;;;;;;92.63;44.92;;;7.40;99.90;;;;;;4975883;28;20532;-77
2023/12/19 05:48:06;;;;;;;66.68;41.63;;;7.30;99.90;;;;;;4978260;28;20049;-77
2023/12/19 05:50:42;;;;;;;80.60;42.47;;;7.30;99.90;;;;;;4975200;28;20049;-77
2023/12/19 05:53:08;;;;;;;143.85;50.30;;;7.30;99.90;;;;;;4990311;28;20037;-77
2023/12/19 05:55:33;;;;;;;74.60;39.00;;;7.30;99.90;;;;;;4983784;28;20125;-78
2023/12/19 05:58:06;;;;;;;85.78;42.20;;;7.30;99.90;;;;;;4983758;28;20089;-77
2023/12/19 06:00:40;;;;;;;76.35;40.35;;;7.30;99.90;;;;;;4980705;28;20392;-77
2023/12/19 06:03:09;;;;;;;70.25;36.83;;;7.30;99.90;;;;;;4971127;28;20046;-77
2023/12/19 06:05:42;;;;;;;79.80;37.25;;;7.30;99.90;;;;;;4989272;28;20080;-76
2023/12/19 06:08:21;;;;;;;89.30;38.67;;;7.30;99.90;;;;;;4987436;28;20033;-77
2023/12/19 06:10:52;;;;;;;70.10;36.53;;;7.30;99.90;;;;;;4993410;28;20042;-76
2023/12/19 06:13:29;;;;;;;58.53;35.42;;;7.30;99.90;;;;;;4977000;28;20042;-76
2023/12/19 06:16:03;;;;;;;76.60;37.30;;;7.30;99.90;;;;;;4976666;28;20485;-77
2023/12/19 06:18:45;;;;;;;60.75;35.60;;;7.40;99.90;;;;;;4985477;28;20030;-77
2023/12/19 06:21:29;;;;;;;61.33;34.30;;;7.40;99.90;;;;;;4996920;28;20045;-76
2023/12/19 06:23:57;;;;;;;68.53;34.17;;;7.30;99.90;;;;;;4996458;28;20049;-77
2023/12/19 06:26:31;;;;;;;63.05;33.35;;;7.40;99.90;;;;;;4992563;28;20080;-76
2023/12/19 06:29:05;;;;;;;58.22;33.97;;;7.40;99.90;;;;;;4976904;28;20043;-76
2023/12/19 06:31:39;;;;;;;60.78;34.33;;;7.40;99.90;;;;;;4984008;28;20049;-76
2023/12/19 06:34:13;;;;;;;65.38;34.45;;;7.40;99.90;;;;;;4980900;28;20054;-76
2023/12/19 06:36:42;;;;;;;75.22;35.72;;;7.40;99.90;;;;;;4983845;28;20034;-76
2023/12/19 06:39:16;;;;;;;54.15;31.98;;;7.40;99.90;;;;;;4977550;28;20411;-76
2023/12/19 06:41:43;;;;;;;60.20;33.80;;;7.50;99.90;;;;;;4976870;28;20061;-76
2023/12/19 06:44:24;;;;;;;65.05;34.53;;;7.40;99.90;;;;;;4988489;28;20038;-76
2023/12/19 06:46:52;;;;;;;71.68;34.75;;;7.40;99.90;;;;;;4986110;28;20042;-76
2023/12/19 06:49:38;;;;;;;65.07;33.17;;;7.40;99.90;;;;;;4975311;28;20188;-76
2023/12/19 06:52:06;;;;;;;132.18;41.15;;;7.40;99.90;;;;;;4967452;28;20037;-76
2023/12/19 06:54:39;;;;;;;61.83;32.83;;;7.40;99.90;;;;;;4963044;28;20434;-77
2023/12/19 06:57:13;;;;;;;51.72;29.05;;;7.40;99.90;;;;;;4978139;28;20030;-77
2023/12/19 06:59:51;;;;;;;55.22;30.38;;;7.50;99.90;;;;;;4978800;28;20038;-77
2023/12/19 07:02:17;;;;;;;56.33;30.33;;;7.50;99.90;;;;;;4988900;28;20050;-77
2023/12/19 07:04:46;;;;;;;52.13;28.83;;;7.40;99.90;;;;;;4977397;28;20050;-77
2023/12/19 07:07:15;;;;;;;51.58;29.45;;;7.50;99.90;;;;;;4991245;28;20049;-77
2023/12/19 07:09:58;;;;;;;68.47;32.65;;;7.50;99.90;;;;;;4983118;28;20049;-77
2023/12/19 07:12:33;;;;;;;57.80;30.73;;;7.50;99.90;;;;;;4982741;28;20053;-78
2023/12/19 07:15:19;;;;;;;55.97;31.85;;;7.50;99.90;;;;;;4987062;28;20034;-77
2023/12/19 07:17:51;;;;;;;59.47;31.77;;;7.50;99.90;;;;;;4991407;28;20481;-77
2023/12/19 07:20:25;;;;;;;57.47;30.58;;;7.50;99.90;;;;;;4983363;28;20088;-77
2023/12/19 07:22:51;;;;;;;58.30;31.58;;;7.50;99.90;;;;;;4986280;28;20050;-77
2023/12/19 07:25:27;;;;;;;65.25;33.45;;;7.50;99.90;;;;;;4984548;28;20034;-77
2023/12/19 07:27:56;;;;;;;65.07;33.20;;;7.50;99.90;;;;;;4992234;28;20489;-76
2023/12/19 07:30:24;;;;;;;58.97;32.25;;;7.60;99.90;;;;;;4976520;28;20068;-76
2023/12/19 07:32:50;;;;;;;86.82;36.90;;;7.60;99.90;;;;;;4972297;28;20038;-76
2023/12/19 07:35:25;;;;;;;53.70;31.45;;;7.60;99.90;;;;;;4962901;28;20047;-78
2023/12/19 07:37:57;;;;;;;53.70;31.98;;;7.60;99.90;;;;;;4985407;28;20033;-79
2023/12/19 07:40:28;;;;;;;60.58;35.20;;;7.60;99.90;;;;;;4995302;28;20634;-79
2023/12/19 07:43:12;;;;;;;97.22;40.38;;;7.70;99.90;;;;;;4980219;28;20042;-77
2023/12/19 07:45:50;;;;;;;73.47;36.83;;;7.70;99.90;;;;;;4973401;28;20062;-79
2023/12/19 07:48:16;;;;;;;88.60;40.25;;;7.70;99.90;;;;;;4971171;28;20129;-78
2023/12/19 07:50:59;;;;;;;68.55;38.05;;;7.70;99.90;;;;;;4972076;28;20465;-78
2023/12/19 07:53:33;;;;;;;125.88;43.53;;;7.80;99.90;;;;;;4956309;28;20039;-77
2023/12/19 07:56:17;;;;;;;71.70;37.78;;;7.80;99.90;;;;;;4959978;28;20050;-78
2023/12/19 07:59:11;;;;;;;73.28;37.85;;;7.70;99.90;;;;;;5004784;23;20060;-78
2023/12/19 08:01:52;;;;;;;92.13;40.78;;;7.80;99.90;;;;;;4964126;28;20046;-79
2023/12/19 08:04:54;;;;;;;89.83;42.20;;;7.90;99.90;;;;;;4996622;28;20076;-78
2023/12/19 08:07:45;;;;;;;112.70;44.15;;;7.90;99.90;;;;;;5004260;28;20045;-78
2023/12/19 08:10:44;;;;;;;80.60;41.28;;;8.00;99.90;;;;;;4993903;28;20018;-78
2023/12/19 08:13:31;;;;;;;106.22;45.75;;;7.90;99.90;;;;;;4995554;28;20042;-79
2023/12/19 08:16:25;;;;;;;105.63;45.42;;;8.00;99.90;;;;;;4973104;28;20042;-79
2023/12/19 08:19:01;;;;;;;72.18;40.80;;;8.00;99.90;;;;;;4987602;28;20176;-78
2023/12/19 08:21:59;;;;;;;82.30;43.25;;;8.00;99.90;;;;;;4983925;28;20044;-78
2023/12/19 08:24:46;;;;;;;87.13;44.33;;;8.00;99.90;;;;;;4973343;28;20580;-79
2023/12/19 08:27:39;;;;;;;85.82;43.90;;;8.10;99.90;;;;;;4967683;28;20034;-78
2023/12/19 08:30:16;;;;;;;62.95;39.30;;;8.10;99.90;;;;;;4962870;28;20181;-77
2023/12/19 08:32:44;;;;;;;77.72;43.28;;;8.10;99.90;;;;;;4977965;28;20033;-79
2023/12/19 08:35:10;;;;;;;90.85;43.95;;;8.10;99.90;;;;;;4972602;28;20043;-79
2023/12/19 08:37:41;;;;;;;84.45;45.83;;;8.20;99.90;;;;;;4954339;28;20043;-78
2023/12/19 08:40:15;;;;;;;119.10;48.20;;;8.20;99.90;;;;;;4971243;28;20043;-78
2023/12/19 08:42:48;;;;;;;93.50;46.17;;;8.20;99.90;;;;;;4959569;28;20042;-78
2023/12/19 08:45:28;;;;;;;80.85;45.72;;;8.20;99.90;;;;;;4967726;28;20055;-79
2023/12/19 08:48:12;;;;;;;131.90;53.40;;;8.20;99.90;;;;;;5000108;28;20447;-78
2023/12/19 08:50:42;;;;;;;79.53;45.83;;;8.30;99.90;;;;;;4988575;28;20034;-78
2023/12/19 08:53:13;;;;;;;63.40;42.80;;;8.20;99.90;;;;;;4976445;28;20052;-78
2023/12/19 08:55:42;;;;;;;133.88;54.78;;;8.30;99.90;;;;;;4974935;28;20037;-78
2023/12/19 08:58:07;;;;;;;101.40;51.28;;;8.30;99.90;;;;;;4977144;28;20041;-78
2023/12/19 09:00:39;;;;;;;83.47;47.60;;;8.30;99.90;;;;;;4979783;28;20121;-78
2023/12/19 09:03:07;;;;;;;83.35;49.35;;;8.40;99.90;;;;;;4978741;28;20377;-78
2023/12/19 09:05:41;;;;;;;110.85;54.08;;;8.30;99.90;;;;;;4980718;28;20053;-78
2023/12/19 09:08:20;;;;;;;75.25;46.88;;;8.40;99.90;;;;;;4972312;28;20133;-78
2023/12/19 09:11:08;;;;;;;69.43;44.17;;;8.40;99.90;;;;;;4980228;28;20050;-78
2023/12/19 09:13:38;;;;;;;82.43;50.50;;;8.40;99.90;;;;;;4988632;28;20046;-78
2023/12/19 09:16:06;;;;;;;89.68;49.25;;;8.40;99.90;;;;;;4986825;28;20523;-78
2023/12/19 09:18:35;;;;;;;69.78;47.72;;;8.40;99.90;;;;;;4979554;28;20042;-78
2023/12/19 09:21:09;;;;;;;86.35;53.15;;;8.40;99.90;;;;;;4981296;28;20052;-79
2023/12/19 09:23:34;;;;;;;86.72;52.17;;;8.40;99.90;;;;;;4982491;28;20050;-78
2023/12/19 09:26:03;;;;;;;78.13;50.65;;;8.40;99.90;;;;;;4998088;28;20050;-78
2023/12/19 09:28:37;;;;;;;115.53;57.75;;;8.40;99.90;;;;;;4986595;28;20115;-78
2023/12/19 09:31:10;;;;;;;99.95;56.88;;;8.40;99.90;;;;;;4980051;28;20108;-78
2023/12/19 09:33:42;;;;;;;91.22;55.90;;;8.40;99.90;;;;;;4982130;28;20054;-77
2023/12/19 09:36:23;;;;;;;103.10;59.47;;;8.30;99.90;;;;;;4984862;28;20488;-79
2023/12/19 09:38:54;;;;;;;88.20;56.63;;;8.40;99.90;;;;;;4984415;28;20369;-78
2023/12/19 09:41:27;;;;;;;114.20;61.05;;;8.40;99.90;;;;;;4983827;28;20038;-78
2023/12/19 09:44:11;;;;;;;79.60;53.85;;;8.40;99.90;;;;;;4977810;28;20849;-78
2023/12/19 09:46:40;;;;;;;114.95;65.15;;;8.40;99.90;;;;;;4985381;28;20100;-78
2023/12/19 09:49:09;;;;;;;140.98;64.55;;;8.40;99.90;;;;;;4982566;28;20085;-77
2023/12/19 09:51:37;;;;;;;75.53;51.55;;;8.40;99.90;;;;;;4982695;28;20064;-78
2023/12/19 09:54:13;;;;;;;102.05;55.88;;;8.40;99.90;;;;;;4983245;28;20123;-78
2023/12/19 09:56:41;;;;;;;109.07;57.42;;;8.40;99.90;;;;;;4982714;28;20121;-78
2023/12/19 09:59:16;;;;;;;92.88;53.90;;;8.40;99.90;;;;;;5000072;28;20061;-78
2023/12/19 10:01:47;;;;;;;130.93;61.95;;;8.40;99.90;;;;;;4985080;28;20037;-78
2023/12/19 10:04:17;;;;;;;103.70;56.88;;;8.40;99.90;;;;;;4982495;28;20065;-77
2023/12/19 10:07:00;;;;;;;147.40;63.58;;;8.40;99.90;;;;;;4983598;28;20435;-77
2023/12/19 10:09:33;;;;;;;101.55;56.75;;;8.40;99.90;;;;;;4982667;28;20045;-79
2023/12/19 10:12:09;;;;;;;123.25;58.97;;;8.40;99.90;;;;;;4982913;28;20399;-77
2023/12/19 10:14:40;;;;;;;96.63;56.03;;;8.30;99.90;;;;;;4982609;28;20074;-78
2023/12/19 10:17:17;;;;;;;182.73;68.43;;;8.40;99.90;;;;;;4982865;28;20041;-78
2023/12/19 10:19:46;;;;;;;107.30;58.25;;;8.40;99.90;;;;;;4981970;28;20500;-77
2023/12/19 10:22:23;;;;;;;181.32;65.97;;;8.40;99.90;;;;;;4982735;28;20049;-78
2023/12/19 10:24:59;;;;;;;138.07;61.00;;;8.40;99.90;;;;;;4990014;28;20090;-78
2023/12/19 10:27:30;;;;;;;133.07;59.08;;;8.30;99.90;;;;;;4968559;28;20038;-78
2023/12/19 10:30:16;;;;;;;194.30;67.82;;;8.40;99.90;;;;;;4977412;28;20050;-77
2023/12/19 10:32:47;;;;;;;99.78;57.25;;;8.30;99.90;;;;;;4981271;28;20037;-77
2023/12/19 10:35:15;;;;;;;119.63;57.60;;;8.40;99.90;;;;;;4991679;28;20040;-78
2023/12/19 10:37:54;;;;;;;82.78;51.45;;;8.40;99.90;;;;;;4982671;28;20128;-81
2023/12/19 10:40:20;;;;;;;99.38;55.53;;;8.40;99.90;;;;;;4982558;28;20521;-77
2023/12/19 10:43:02;;;;;;;102.40;55.53;;;8.40;99.90;;;;;;4981668;28;20400;-78
2023/12/19 10:45:36;;;;;;;106.80;55.60;;;8.40;99.90;;;;;;4981787;28;20037;-77
2023/12/19 10:48:06;;;;;;;167.27;63.00;;;8.30;99.90;;;;;;4980902;28;20051;-77
2023/12/19 10:50:37;;;;;;;78.07;50.63;;;8.30;99.90;;;;;;4978259;28;20045;-78
2023/12/19 10:53:06;;;;;;;175.70;63.50;;;8.40;99.90;;;;;;4964240;28;20046;-77
2023/12/19 10:55:54;;;;;;;128.67;58.73;;;8.30;99.90;;;;;;4962881;28;20042;-77
2023/12/19 10:58:28;;;;;;;96.28;52.78;;;8.40;99.90;;;;;;4970835;28;20405;-79
2023/12/19 11:00:55;;;;;;;130.13;57.88;;;8.30;99.90;;;;;;4968705;28;20037;-79
2023/12/19 11:03:33;;;;;;;192.35;64.95;;;8.40;99.90;;;;;;4998960;28;20038;-77
2023/12/19 11:06:05;;;;;;;103.95;53.88;;;8.40;99.90;;;;;;4973109;28;20038;-76
2023/12/19 11:08:42;;;;;;;136.55;57.22;;;8.40;99.90;;;;;;4981707;28;20030;-77
2023/12/19 11:11:30;;;;;;;78.30;49.53;;;8.40;99.90;;;;;;4962362;28;20041;-77
2023/12/19 11:13:56;;;;;;;132.57;55.97;;;8.40;99.90;;;;;;4961890;28;20074;-77
2023/12/19 11:16:48;;;;;;;94.93;51.63;;;8.40;99.90;;;;;;4994252;28;20124;-76
2023/12/19 11:19:30;;;;;;;97.78;52.20;;;8.40;99.90;;;;;;4979232;28;20400;-77
2023/12/19 11:22:04;;;;;;;102.30;51.58;;;8.40;99.90;;;;;;4976968;28;20192;-78
2023/12/19 11:24:44;;;;;;;85.75;50.88;;;8.40;99.90;;;;;;4983572;28;20042;-77
2023/12/19 11:27:13;;;;;;;101.03;53.43;;;8.40;99.90;;;;;;4976419;28;20065;-78
2023/12/19 11:29:46;;;;;;;67.00;45.15;;;8.40;99.90;;;;;;4991802;28;20754;-78
2023/12/19 11:32:27;;;;;;;98.10;53.03;;;8.40;99.90;;;;;;4967563;28;20058;-76
2023/12/19 11:35:13;;;;;;;112.72;54.92;;;8.50;99.90;;;;;;4960559;28;20394;-77
2023/12/19 11:37:43;;;;;;;123.97;56.05;;;8.50;99.90;;;;;;4998445;28;20081;-77
2023/12/19 11:40:18;;;;;;;65.20;44.17;;;8.50;99.90;;;;;;4977813;28;20068;-77
2023/12/19 11:42:48;;;;;;;89.03;48.53;;;8.50;99.90;;;;;;4983952;28;20442;-77
2023/12/19 11:45:17;;;;;;;80.07;45.33;;;8.50;99.90;;;;;;4978319;28;20436;-77
2023/12/19 11:47:47;;;;;;;78.40;45.08;;;8.60;99.90;;;;;;4966404;28;20042;-76
2023/12/19 11:50:39;;;;;;;74.45;44.45;;;8.60;99.90;;;;;;4962722;28;20030;-76
2023/12/19 11:53:05;;;;;;;81.75;44.42;;;8.50;99.90;;;;;;4968513;28;20034;-77
2023/12/19 11:55:31;;;;;;;99.20;48.53;;;8.50;99.90;;;;;;4977933;28;20488;-77
2023/12/19 11:58:15;;;;;;;114.65;50.28;;;8.50;99.90;;;;;;4975911;28;20129;-77
2023/12/19 12:00:41;;;;;;;67.82;43.05;;;8.60;99.90;;;;;;4959906;28;20126;-77
2023/12/19 12:03:11;;;;;;;58.42;40.88;;;8.50;99.90;;;;;;4960165;28;20125;-77
2023/12/19 12:05:36;;;;;;;61.95;41.50;;;8.60;99.90;;;;;;4961466;28;20073;-76
2023/12/19 12:08:03;;;;;;;83.65;45.75;;;8.50;99.90;;;;;;4961444;28;20042;-76
2023/12/19 12:10:28;;;;;;;67.38;42.58;;;8.60;99.90;;;;;;5005689;28;20409;-75
2023/12/19 12:12:55;;;;;;;63.17;41.50;;;8.60;99.90;;;;;;4973583;28;20104;-76
2023/12/19 12:15:26;;;;;;;92.53;46.80;;;8.60;99.90;;;;;;4961269;28;20038;-76
2023/12/19 12:18:06;;;;;;;61.28;40.75;;;8.50;99.90;;;;;;4971991;28;20138;-78
2023/12/19 12:21:13;;;;;;;53.53;39.47;;;8.60;99.90;;;;;;4977628;28;20091;-77
2023/12/19 12:24:13;;;;;;;55.13;38.35;;;8.60;99.90;;;;;;4976741;28;20034;-77
2023/12/19 12:26:45;;;;;;;74.38;44.83;;;8.60;99.90;;;;;;5002021;28;20448;-76
2023/12/19 12:29:27;;;;;;;116.18;49.70;;;8.50;99.90;;;;;;4955874;28;20042;-77
2023/12/19 12:31:57;;;;;;;93.00;46.55;;;8.60;99.90;;;;;;4979241;28;20364;-77
2023/12/19 12:34:31;;;;;;;57.40;40.22;;;8.60;99.90;;;;;;4959025;28;20501;-76
2023/12/19 12:36:57;;;;;;;103.25;47.17;;;8.50;99.90;;;;;;4959990;28;20096;-77
2023/12/19 12:39:23;;;;;;;89.88;44.60;;;8.50;99.90;;;;;;4963311;28;20038;-76
2023/12/19 12:41:48;;;;;;;74.43;42.20;;;8.50;99.90;;;;;;4968793;28;20034;-76
2023/12/19 12:44:34;;;;;;;116.65;49.00;;;8.60;99.90;;;;;;4961238;28;20160;-78
2023/12/19 12:47:05;;;;;;;72.18;43.15;;;8.60;99.90;;;;;;4976887;28;20042;-77
2023/12/19 12:49:31;;;;;;;81.35;44.42;;;8.60;99.90;;;;;;4978045;28;20041;-77
2023/12/19 12:52:04;;;;;;;147.00;51.53;;;8.60;99.90;;;;;;4977685;28;20034;-76
2023/12/19 12:54:32;;;;;;;84.75;45.85;;;8.60;99.90;;;;;;4979297;28;20034;-74
2023/12/19 12:57:00;;;;;;;74.88;43.72;;;8.60;99.90;;;;;;4993068;28;20493;-75